sensor_id;sensor_type;location;lat;lon;timestamp;pressure;altitude;pressure_sealevel;temperature;humidity
15314;BME280;7757;52.626;4.746;2023-10-09T00:00:53;101835.13;;;19.69;73.29
15314;BME280;7757;52.626;4.746;2023-10-09T00:03:26;101813.50;;;19.56;72.85
15314;BME280;7757;52.626;4.746;2023-10-09T00:05:54;101798.94;;;19.50;73.88
15314;BME280;7757;52.626;4.746;2023-10-09T00:08:21;101819.72;;;19.63;73.69
15314;BME280;7757;52.626;4.746;2023-10-09T00:10:50;101821.31;;;19.70;73.14
15314;BME280;7757;52.626;4.746;2023-10-09T00:13:20;101823.00;;;19.71;73.14
15314;BME280;7757;52.626;4.746;2023-10-09T00:15:52;101819.66;;;19.69;72.83
15314;BME280;7757;52.626;4.746;2023-10-09T00:18:19;101813.78;;;19.72;73.01
15314;BME280;7757;52.626;4.746;2023-10-09T00:20:54;101813.78;;;19.72;72.91
15314;BME280;7757;52.626;4.746;2023-10-09T00:23:22;101812.78;;;19.67;73.49
15314;BME280;7757;52.626;4.746;2023-10-09T00:25:54;101791.22;;;19.54;73.44
15314;BME280;7757;52.626;4.746;2023-10-09T00:28:36;101817.78;;;19.70;74.46
15314;BME280;7757;52.626;4.746;2023-10-09T00:31:06;101811.34;;;19.64;73.64
15314;BME280;7757;52.626;4.746;2023-10-09T00:33:33;101815.06;;;19.70;74.76
15314;BME280;7757;52.626;4.746;2023-10-09T00:36:03;101794.69;;;19.61;73.92
15314;BME280;7757;52.626;4.746;2023-10-09T00:38:36;101793.63;;;19.62;73.89
15314;BME280;7757;52.626;4.746;2023-10-09T00:41:05;101807.56;;;19.72;73.42
15314;BME280;7757;52.626;4.746;2023-10-09T00:43:33;101777.59;;;19.60;73.77
15314;BME280;7757;52.626;4.746;2023-10-09T00:46:02;101803.75;;;19.73;73.20
15314;BME280;7757;52.626;4.746;2023-10-09T00:48:28;101805.44;;;19.74;73.34
15314;BME280;7757;52.626;4.746;2023-10-09T00:51:02;101764.06;;;19.54;73.93
15314;BME280;7757;52.626;4.746;2023-10-09T00:53:41;101776.69;;;19.66;73.51
15314;BME280;7757;52.626;4.746;2023-10-09T00:56:07;101788.91;;;19.75;74.09
15314;BME280;7757;52.626;4.746;2023-10-09T00:59:00;101774.53;;;19.75;74.72
15314;BME280;7757;52.626;4.746;2023-10-09T01:01:32;101762.75;;;19.63;73.49
15314;BME280;7757;52.626;4.746;2023-10-09T01:04:04;101761.06;;;19.62;75.55
15314;BME280;7757;52.626;4.746;2023-10-09T01:06:37;101772.63;;;19.75;74.31
15314;BME280;7757;52.626;4.746;2023-10-09T01:09:14;101770.16;;;19.74;73.56
15314;BME280;7757;52.626;4.746;2023-10-09T01:11:40;101738.56;;;19.55;73.21
15314;BME280;7757;52.626;4.746;2023-10-09T01:14:35;101762.22;;;19.72;73.96
15314;BME280;7757;52.626;4.746;2023-10-09T01:17:06;101763.88;;;19.73;73.80
15314;BME280;7757;52.626;4.746;2023-10-09T01:19:35;101767.44;;;19.74;74.00
15314;BME280;7757;52.626;4.746;2023-10-09T01:22:02;101778.69;;;19.77;74.28
15314;BME280;7757;52.626;4.746;2023-10-09T01:24:47;101769.91;;;19.75;74.72
15314;BME280;7757;52.626;4.746;2023-10-09T01:27:15;101768.88;;;19.76;73.71
15314;BME280;7757;52.626;4.746;2023-10-09T01:29:41;101764.91;;;19.72;nan
15314;BME280;7757;52.626;4.746;2023-10-09T01:32:08;101759.03;;;19.75;74.13
15314;BME280;7757;52.626;4.746;2023-10-09T01:34:42;101754.91;;;19.73;73.73
15314;BME280;7757;52.626;4.746;2023-10-09T01:37:15;101761.75;;;19.75;73.71
15314;BME280;7757;52.626;4.746;2023-10-09T01:39:48;101749.09;;;19.69;73.76
15314;BME280;7757;52.626;4.746;2023-10-09T01:42:16;101752.56;;;19.76;75.28
15314;BME280;7757;52.626;4.746;2023-10-09T01:45:02;101751.53;;;19.77;74.13
15314;BME280;7757;52.626;4.746;2023-10-09T01:47:58;101743.38;;;19.77;73.86
15314;BME280;7757;52.626;4.746;2023-10-09T01:50:33;101737.31;;;19.75;74.21
15314;BME280;7757;52.626;4.746;2023-10-09T01:53:03;101715.91;;;19.67;75.26
15314;BME280;7757;52.626;4.746;2023-10-09T01:55:31;101725.03;;;19.73;74.31
15314;BME280;7757;52.626;4.746;2023-10-09T01:58:05;101741.72;;;19.76;74.72
15314;BME280;7757;52.626;4.746;2023-10-09T02:00:42;101706.78;;;19.62;74.75
15314;BME280;7757;52.626;4.746;2023-10-09T02:03:09;101734.16;;;19.78;74.93
15314;BME280;7757;52.626;4.746;2023-10-09T02:05:38;101718.78;;;19.72;74.79
15314;BME280;7757;52.626;4.746;2023-10-09T02:08:04;101682.22;;;19.57;74.86
15314;BME280;7757;52.626;4.746;2023-10-09T02:10:31;101733.38;;;19.78;75.39
15314;BME280;7757;52.626;4.746;2023-10-09T02:15:25;101696.16;;;19.60;74.29
15314;BME280;7757;52.626;4.746;2023-10-09T02:18:17;101710.03;;;19.70;74.15
15314;BME280;7757;52.626;4.746;2023-10-09T02:23:27;101711.16;;;19.63;74.51
15314;BME280;7757;52.626;4.746;2023-10-09T02:26:05;101720.00;;;19.76;74.10
15314;BME280;7757;52.626;4.746;2023-10-09T02:29:00;101712.09;;;19.75;73.60
15314;BME280;7757;52.626;4.746;2023-10-09T02:31:30;101716.25;;;19.77;73.87
15314;BME280;7757;52.626;4.746;2023-10-09T02:34:06;101708.16;;;19.71;74.44
15314;BME280;7757;52.626;4.746;2023-10-09T02:36:33;101701.69;;;19.72;74.15
15314;BME280;7757;52.626;4.746;2023-10-09T02:39:09;101705.38;;;19.77;74.15
15314;BME280;7757;52.626;4.746;2023-10-09T02:41:57;101701.59;;;19.78;74.15
15314;BME280;7757;52.626;4.746;2023-10-09T02:44:47;101678.50;;;19.69;74.52
15314;BME280;7757;52.626;4.746;2023-10-09T02:47:15;101684.72;;;19.76;74.45
15314;BME280;7757;52.626;4.746;2023-10-09T02:49:54;101692.66;;;19.78;74.81
15314;BME280;7757;52.626;4.746;2023-10-09T02:52:25;101691.81;;;19.77;74.35
15314;BME280;7757;52.626;4.746;2023-10-09T02:54:52;101695.34;;;19.78;74.48
15314;BME280;7757;52.626;4.746;2023-10-09T02:57:26;101696.16;;;19.78;74.11
15314;BME280;7757;52.626;4.746;2023-10-09T02:59:54;101685.06;;;19.62;74.12
15314;BME280;7757;52.626;4.746;2023-10-09T03:02:20;101710.44;;;19.74;73.88
15314;BME280;7757;52.626;4.746;2023-10-09T03:04:45;101702.50;;;19.72;73.94
15314;BME280;7757;52.626;4.746;2023-10-09T03:07:11;101686.97;;;19.61;74.32
15314;BME280;7757;52.626;4.746;2023-10-09T03:09:39;101702.50;;;19.72;74.30
15314;BME280;7757;52.626;4.746;2023-10-09T03:12:06;101716.25;;;19.77;74.30
15314;BME280;7757;52.626;4.746;2023-10-09T03:14:36;101714.97;;;19.80;73.84
15314;BME280;7757;52.626;4.746;2023-10-09T03:17:06;101709.75;;;19.78;73.75
15314;BME280;7757;52.626;4.746;2023-10-09T03:19:36;101711.66;;;19.78;74.07
15314;BME280;7757;52.626;4.746;2023-10-09T03:22:06;101727.94;;;19.78;74.13
15314;BME280;7757;52.626;4.746;2023-10-09T03:24:36;101715.03;;;19.73;73.94
15314;BME280;7757;52.626;4.746;2023-10-09T03:27:07;101706.72;;;19.68;74.02
15314;BME280;7757;52.626;4.746;2023-10-09T03:29:33;101717.13;;;19.71;74.54
15314;BME280;7757;52.626;4.746;2023-10-09T03:31:58;101723.31;;;19.78;74.15
15314;BME280;7757;52.626;4.746;2023-10-09T03:34:26;101695.28;;;19.66;73.91
15314;BME280;7757;52.626;4.746;2023-10-09T03:36:53;101711.84;;;19.76;74.22
15314;BME280;7757;52.626;4.746;2023-10-09T03:39:32;101664.66;;;19.59;74.73
15314;BME280;7757;52.626;4.746;2023-10-09T03:42:00;101670.84;;;19.66;74.21
15314;BME280;7757;52.626;4.746;2023-10-09T03:44:32;101694.53;;;19.77;74.73
15314;BME280;7757;52.626;4.746;2023-10-09T03:47:01;101692.84;;;19.76;74.40
15314;BME280;7757;52.626;4.746;2023-10-09T03:49:28;101680.56;;;19.74;74.06
15314;BME280;7757;52.626;4.746;2023-10-09T03:51:54;101684.50;;;19.78;74.41
15314;BME280;7757;52.626;4.746;2023-10-09T03:54:20;101680.72;;;19.79;74.57
15314;BME280;7757;52.626;4.746;2023-10-09T03:56:47;101661.78;;;19.72;73.97
15314;BME280;7757;52.626;4.746;2023-10-09T03:59:17;101679.88;;;19.78;74.32
15314;BME280;7757;52.626;4.746;2023-10-09T04:01:49;101663.97;;;19.64;74.13
15314;BME280;7757;52.626;4.746;2023-10-09T04:04:16;101681.59;;;19.73;74.48
15314;BME280;7757;52.626;4.746;2023-10-09T04:06:41;101657.56;;;19.58;74.28
15314;BME280;7757;52.626;4.746;2023-10-09T04:09:10;101691.56;;;19.79;74.47
15314;BME280;7757;52.626;4.746;2023-10-09T04:11:45;101667.06;;;19.67;74.24
15314;BME280;7757;52.626;4.746;2023-10-09T04:14:24;101688.03;;;19.78;73.85
15314;BME280;7757;52.626;4.746;2023-10-09T04:17:01;101687.28;;;19.71;74.70
15314;BME280;7757;52.626;4.746;2023-10-09T04:19:52;101664.78;;;19.64;74.76
15314;BME280;7757;52.626;4.746;2023-10-09T04:22:37;101686.38;;;19.77;74.53
15314;BME280;7757;52.626;4.746;2023-10-09T04:25:05;101688.72;;;19.74;74.66
15314;BME280;7757;52.626;4.746;2023-10-09T04:27:43;101688.72;;;19.74;74.45
15314;BME280;7757;52.626;4.746;2023-10-09T04:30:10;101691.81;;;19.77;74.70
15314;BME280;7757;52.626;4.746;2023-10-09T04:32:41;101691.88;;;19.71;75.03
15314;BME280;7757;52.626;4.746;2023-10-09T04:35:10;101688.91;;;19.72;74.85
15314;BME280;7757;52.626;4.746;2023-10-09T04:37:47;101711.41;;;19.79;74.56
15314;BME280;7757;52.626;4.746;2023-10-09T04:40:29;101718.97;;;19.77;74.92
15314;BME280;7757;52.626;4.746;2023-10-09T04:43:16;101727.53;;;19.74;75.07
15314;BME280;7757;52.626;4.746;2023-10-09T04:45:48;101745.88;;;19.79;75.12
15314;BME280;7757;52.626;4.746;2023-10-09T04:48:37;101749.66;;;19.78;74.95
15314;BME280;7757;52.626;4.746;2023-10-09T04:51:10;101764.88;;;19.79;74.88
15314;BME280;7757;52.626;4.746;2023-10-09T04:53:56;101751.59;;;19.71;75.96
15314;BME280;7757;52.626;4.746;2023-10-09T04:56:42;101765.56;;;19.74;75.40
15314;BME280;7757;52.626;4.746;2023-10-09T04:59:20;101773.69;;;19.74;75.05
15314;BME280;7757;52.626;4.746;2023-10-09T05:01:51;101761.00;;;19.68;75.63
15314;BME280;7757;52.626;4.746;2023-10-09T05:04:26;101765.56;;;19.74;76.09
15314;BME280;7757;52.626;4.746;2023-10-09T05:07:03;101743.06;;;19.67;75.43
15314;BME280;7757;52.626;4.746;2023-10-09T05:09:49;101730.81;;;19.58;75.93
15314;BME280;7757;52.626;4.746;2023-10-09T05:12:22;101748.47;;;19.67;75.99
15314;BME280;7757;52.626;4.746;2023-10-09T05:14:51;101733.34;;;19.60;76.56
15314;BME280;7757;52.626;4.746;2023-10-09T05:17:34;101721.59;;;19.66;76.10
15314;BME280;7757;52.626;4.746;2023-10-09T05:20:02;101700.59;;;19.55;75.46
15314;BME280;7757;52.626;4.746;2023-10-09T05:22:46;101733.94;;;19.62;76.67
15314;BME280;7757;52.626;4.746;2023-10-09T05:25:23;101739.94;;;19.64;75.98
15314;BME280;7757;52.626;4.746;2023-10-09T05:28:09;101742.84;;;19.69;76.02
15314;BME280;7757;52.626;4.746;2023-10-09T05:30:52;101742.16;;;19.73;75.30
15314;BME280;7757;52.626;4.746;2023-10-09T05:33:57;101721.78;;;19.64;76.78
15314;BME280;7757;52.626;4.746;2023-10-09T05:36:28;101734.25;;;19.72;76.54
15314;BME280;7757;52.626;4.746;2023-10-09T05:38:53;101723.22;;;19.67;76.40
15314;BME280;7757;52.626;4.746;2023-10-09T05:41:42;101720.91;;;19.70;75.36
15314;BME280;7757;52.626;4.746;2023-10-09T05:44:18;101732.34;;;19.72;75.16
15314;BME280;7757;52.626;4.746;2023-10-09T05:47:02;101732.19;;;19.67;75.34
15314;BME280;7757;52.626;4.746;2023-10-09T05:49:46;101703.03;;;19.63;75.83
15314;BME280;7757;52.626;4.746;2023-10-09T05:52:13;101701.06;;;19.70;75.67
15314;BME280;7757;52.626;4.746;2023-10-09T05:55:12;101679.66;;;19.62;75.70
15314;BME280;7757;52.626;4.746;2023-10-09T05:57:53;101691.09;;;19.64;75.36
15314;BME280;7757;52.626;4.746;2023-10-09T06:00:37;101715.25;;;19.72;74.97
15314;BME280;7757;52.626;4.746;2023-10-09T06:03:21;101721.34;;;19.67;75.67
15314;BME280;7757;52.626;4.746;2023-10-09T06:05:47;101738.06;;;19.64;75.84
15314;BME280;7757;52.626;4.746;2023-10-09T06:08:24;101719.75;;;19.60;76.08
15314;BME280;7757;52.626;4.746;2023-10-09T06:10:53;101714.28;;;19.41;76.46
15314;BME280;7757;52.626;4.746;2023-10-09T06:13:33;101706.84;;;19.55;75.89
15314;BME280;7757;52.626;4.746;2023-10-09T06:16:12;101718.41;;;19.69;75.54
15314;BME280;7757;52.626;4.746;2023-10-09T06:18:58;101726.13;;;19.72;76.22
15314;BME280;7757;52.626;4.746;2023-10-09T06:21:42;101729.56;;;19.79;75.94
15314;BME280;7757;52.626;4.746;2023-10-09T06:24:07;101746.84;;;19.84;75.96
15314;BME280;7757;52.626;4.746;2023-10-09T06:26:45;101740.69;;;19.95;75.71
15314;BME280;7757;52.626;4.746;2023-10-09T06:29:20;101724.22;;;19.72;76.57
15314;BME280;7757;52.626;4.746;2023-10-09T06:32:05;101716.97;;;19.84;75.64
15314;BME280;7757;52.626;4.746;2023-10-09T06:34:54;101709.59;;;19.91;75.34
15314;BME280;7757;52.626;4.746;2023-10-09T06:37:40;101708.69;;;19.97;74.76
15314;BME280;7757;52.626;4.746;2023-10-09T06:40:25;101695.56;;;19.94;75.78
15314;BME280;7757;52.626;4.746;2023-10-09T06:43:11;101717.91;;;20.15;75.31
15314;BME280;7757;52.626;4.746;2023-10-09T06:45:43;101692.41;;;20.16;74.81
15314;BME280;7757;52.626;4.746;2023-10-09T06:48:12;101674.00;;;19.99;74.45
15314;BME280;7757;52.626;4.746;2023-10-09T06:50:56;101706.97;;;20.21;74.84
15314;BME280;7757;52.626;4.746;2023-10-09T06:53:29;101692.63;;;20.14;75.08
15314;BME280;7757;52.626;4.746;2023-10-09T06:56:16;101672.25;;;20.05;74.15
15314;BME280;7757;52.626;4.746;2023-10-09T06:59:04;101703.19;;;20.04;74.46
15314;BME280;7757;52.626;4.746;2023-10-09T07:01:40;101685.56;;;19.95;75.06
15314;BME280;7757;52.626;4.746;2023-10-09T07:04:10;101682.19;;;20.11;75.03
15314;BME280;7757;52.626;4.746;2023-10-09T07:06:45;101702.81;;;20.19;74.44
15314;BME280;7757;52.626;4.746;2023-10-09T07:09:12;101713.38;;;20.27;75.28
15314;BME280;7757;52.626;4.746;2023-10-09T07:11:39;101703.13;;;20.29;75.21
15314;BME280;7757;52.626;4.746;2023-10-09T07:14:25;101699.03;;;20.38;74.23
15314;BME280;7757;52.626;4.746;2023-10-09T07:17:08;101690.38;;;20.29;74.85
15314;BME280;7757;52.626;4.746;2023-10-09T07:19:55;101703.03;;;20.35;74.63
15314;BME280;7757;52.626;4.746;2023-10-09T07:22:21;101713.91;;;20.35;74.20
15314;BME280;7757;52.626;4.746;2023-10-09T07:24:50;101716.88;;;20.34;74.06
15314;BME280;7757;52.626;4.746;2023-10-09T07:27:30;101700.78;;;20.32;74.04
15314;BME280;7757;52.626;4.746;2023-10-09T07:30:15;101694.97;;;20.29;73.70
15314;BME280;7757;52.626;4.746;2023-10-09T07:33:00;101680.91;;;20.14;74.15
15314;BME280;7757;52.626;4.746;2023-10-09T07:38:13;101706.59;;;20.36;74.25
15314;BME280;7757;52.626;4.746;2023-10-09T07:40:42;101735.69;;;20.47;74.01
15314;BME280;7757;52.626;4.746;2023-10-09T07:43:24;101734.22;;;20.33;73.62
15314;BME280;7757;52.626;4.746;2023-10-09T07:46:04;101758.28;;;20.47;73.46
15314;BME280;7757;52.626;4.746;2023-10-09T07:48:33;101759.34;;;20.28;73.70
15314;BME280;7757;52.626;4.746;2023-10-09T07:51:20;101704.94;;;19.80;73.54
15314;BME280;7757;52.626;4.746;2023-10-09T07:53:52;101779.25;;;20.22;73.85
15314;BME280;7757;52.626;4.746;2023-10-09T07:56:40;101787.56;;;20.27;73.50
15314;BME280;7757;52.626;4.746;2023-10-09T07:59:14;101805.97;;;20.43;73.89
15314;BME280;7757;52.626;4.746;2023-10-09T08:01:44;101812.31;;;20.55;73.59
15314;BME280;7757;52.626;4.746;2023-10-09T08:04:40;101792.56;;;20.48;73.54
15314;BME280;7757;52.626;4.746;2023-10-09T08:07:18;101784.78;;;20.34;73.05
15314;BME280;7757;52.626;4.746;2023-10-09T08:10:03;101776.00;;;20.32;73.47
15314;BME280;7757;52.626;4.746;2023-10-09T08:12:45;101837.16;;;20.59;72.81
15314;BME280;7757;52.626;4.746;2023-10-09T08:15:16;101825.38;;;20.47;73.32
15314;BME280;7757;52.626;4.746;2023-10-09T08:18:03;101815.41;;;20.41;72.42
15314;BME280;7757;52.626;4.746;2023-10-09T08:20:30;101833.78;;;20.45;73.37
15314;BME280;7757;52.626;4.746;2023-10-09T08:23:23;101838.06;;;20.53;73.24
15314;BME280;7757;52.626;4.746;2023-10-09T08:26:04;101823.09;;;20.62;73.22
15314;BME280;7757;52.626;4.746;2023-10-09T08:28:43;101844.00;;;20.80;73.02
15314;BME280;7757;52.626;4.746;2023-10-09T08:31:11;101846.13;;;20.78;72.15
15314;BME280;7757;52.626;4.746;2023-10-09T08:33:55;101856.44;;;20.87;72.40
15314;BME280;7757;52.626;4.746;2023-10-09T08:36:28;101841.63;;;20.72;72.37
15314;BME280;7757;52.626;4.746;2023-10-09T08:38:57;101848.59;;;20.79;72.84
15314;BME280;7757;52.626;4.746;2023-10-09T08:41:24;101856.94;;;20.84;72.03
15314;BME280;7757;52.626;4.746;2023-10-09T08:43:58;101861.44;;;20.90;72.55
15314;BME280;7757;52.626;4.746;2023-10-09T08:46:26;101847.56;;;20.80;72.31
15314;BME280;7757;52.626;4.746;2023-10-09T08:48:56;101861.09;;;20.87;72.23
15314;BME280;7757;52.626;4.746;2023-10-09T08:51:23;101841.66;;;20.83;72.32
15314;BME280;7757;52.626;4.746;2023-10-09T08:53:51;101852.22;;;20.91;72.09
15314;BME280;7757;52.626;4.746;2023-10-09T08:56:18;101844.19;;;20.96;72.08
15314;BME280;7757;52.626;4.746;2023-10-09T09:01:17;101826.31;;;20.89;71.72
15314;BME280;7757;52.626;4.746;2023-10-09T09:03:46;101838.22;;;21.06;71.89
15314;BME280;7757;52.626;4.746;2023-10-09T09:06:12;101812.84;;;20.94;71.90
15314;BME280;7757;52.626;4.746;2023-10-09T09:08:40;101839.03;;;21.06;71.99
15314;BME280;7757;52.626;4.746;2023-10-09T09:11:23;101846.88;;;20.85;71.87
15314;BME280;7757;52.626;4.746;2023-10-09T09:16:31;101848.56;;;20.68;72.21
15314;BME280;7757;52.626;4.746;2023-10-09T09:19:01;101779.25;;;20.40;72.75
15314;BME280;7757;52.626;4.746;2023-10-09T09:21:49;101847.63;;;20.74;72.81
15314;BME280;7757;52.626;4.746;2023-10-09T09:24:19;101833.38;;;20.60;72.72
15314;BME280;7757;52.626;4.746;2023-10-09T09:26:50;101833.97;;;20.62;71.91
15314;BME280;7757;52.626;4.746;2023-10-09T09:32:08;101838.38;;;20.63;72.08
15314;BME280;7757;52.626;4.746;2023-10-09T09:34:53;101841.16;;;20.75;72.15
15314;BME280;7757;52.626;4.746;2023-10-09T09:37:29;101855.03;;;20.85;72.20
15314;BME280;7757;52.626;4.746;2023-10-09T09:40:15;101847.94;;;20.84;71.76
15314;BME280;7757;52.626;4.746;2023-10-09T09:42:58;101845.06;;;20.79;72.34
15314;BME280;7757;52.626;4.746;2023-10-09T09:45:38;101857.28;;;20.88;72.18
15314;BME280;7757;52.626;4.746;2023-10-09T09:48:13;101863.94;;;20.92;71.97
15314;BME280;7757;52.626;4.746;2023-10-09T09:50:41;101832.63;;;20.71;71.36
15314;BME280;7757;52.626;4.746;2023-10-09T09:53:14;101799.75;;;20.43;71.54
15314;BME280;7757;52.626;4.746;2023-10-09T09:55:51;101886.22;;;20.82;71.63
15314;BME280;7757;52.626;4.746;2023-10-09T09:58:26;101863.88;;;20.62;73.34
15314;BME280;7757;52.626;4.746;2023-10-09T10:01:12;101867.91;;;20.59;72.50
15314;BME280;7757;52.626;4.746;2023-10-09T10:03:52;101885.25;;;20.77;72.78
15314;BME280;7757;52.626;4.746;2023-10-09T10:06:23;101863.06;;;20.62;72.36
15314;BME280;7757;52.626;4.746;2023-10-09T10:08:52;101876.81;;;20.67;72.54
15314;BME280;7757;52.626;4.746;2023-10-09T10:11:46;101875.22;;;20.77;72.12
15314;BME280;7757;52.626;4.746;2023-10-09T10:14:17;101858.75;;;20.72;72.71
15314;BME280;7757;52.626;4.746;2023-10-09T10:17:04;101847.56;;;20.62;72.45
15314;BME280;7757;52.626;4.746;2023-10-09T10:20:04;101846.53;;;20.63;71.82
15314;BME280;7757;52.626;4.746;2023-10-09T10:22:45;101873.72;;;20.81;72.88
15314;BME280;7757;52.626;4.746;2023-10-09T10:25:33;101865.25;;;20.71;72.78
15314;BME280;7757;52.626;4.746;2023-10-09T10:30:46;101862.66;;;20.58;72.68
15314;BME280;7757;52.626;4.746;2023-10-09T10:33:13;101855.81;;;20.55;73.22
15314;BME280;7757;52.626;4.746;2023-10-09T10:35:42;101847.13;;;20.47;73.53
15314;BME280;7757;52.626;4.746;2023-10-09T10:38:31;101881.25;;;20.61;73.98
15314;BME280;7757;52.626;4.746;2023-10-09T10:41:23;101866.53;;;20.50;73.49
15314;BME280;7757;52.626;4.746;2023-10-09T10:43:49;101888.59;;;20.61;73.61
15314;BME280;7757;52.626;4.746;2023-10-09T10:46:19;101883.56;;;20.76;73.92
15314;BME280;7757;52.626;4.746;2023-10-09T10:49:05;101873.84;;;20.68;73.72
15314;BME280;7757;52.626;4.746;2023-10-09T10:51:41;101889.94;;;20.70;73.28
15314;BME280;7757;52.626;4.746;2023-10-09T10:54:23;101883.75;;;20.63;74.07
15314;BME280;7757;52.626;4.746;2023-10-09T10:56:57;101875.53;;;20.69;73.63
15314;BME280;7757;52.626;4.746;2023-10-09T10:59:23;101873.59;;;20.70;72.84
15314;BME280;7757;52.626;4.746;2023-10-09T11:01:51;101884.13;;;20.66;73.90
15314;BME280;7757;52.626;4.746;2023-10-09T11:04:26;101858.97;;;20.52;75.02
15314;BME280;7757;52.626;4.746;2023-10-09T11:07:00;101881.47;;;20.78;74.31
15314;BME280;7757;52.626;4.746;2023-10-09T11:15:30;101885.19;;;20.83;73.71
15314;BME280;7757;52.626;4.746;2023-10-09T11:18:02;101890.75;;;20.88;74.04
15314;BME280;7757;52.626;4.746;2023-10-09T11:20:51;101889.00;;;20.94;73.06
15314;BME280;7757;52.626;4.746;2023-10-09T11:23:29;101906.28;;;20.99;73.04
15314;BME280;7757;52.626;4.746;2023-10-09T11:26:05;101883.88;;;20.86;73.20
15314;BME280;7757;52.626;4.746;2023-10-09T11:29:12;101898.13;;;20.99;72.97
15314;BME280;7757;52.626;4.746;2023-10-09T11:32:04;101839.50;;;20.55;73.87
15314;BME280;7757;52.626;4.746;2023-10-09T11:34:32;101880.84;;;20.94;73.04
15314;BME280;7757;52.626;4.746;2023-10-09T11:37:12;101892.56;;;20.94;73.62
15314;BME280;7757;52.626;4.746;2023-10-09T11:39:39;101896.78;;;20.90;73.25
15314;BME280;7757;52.626;4.746;2023-10-09T11:42:20;101878.13;;;20.76;73.68
15314;BME280;7757;52.626;4.746;2023-10-09T11:45:08;101898.38;;;20.80;73.81
15314;BME280;7757;52.626;4.746;2023-10-09T11:47:50;101895.91;;;20.78;73.15
15314;BME280;7757;52.626;4.746;2023-10-09T11:53:10;101869.72;;;20.66;73.70
15314;BME280;7757;52.626;4.746;2023-10-09T11:55:53;101898.63;;;20.78;73.02
15314;BME280;7757;52.626;4.746;2023-10-09T11:58:20;101896.50;;;20.80;73.33
15314;BME280;7757;52.626;4.746;2023-10-09T12:00:57;101901.13;;;20.80;73.34
15314;BME280;7757;52.626;4.746;2023-10-09T12:03:43;101871.00;;;20.63;73.62
15314;BME280;7757;52.626;4.746;2023-10-09T12:06:14;101901.19;;;20.73;73.28
15314;BME280;7757;52.626;4.746;2023-10-09T12:08:40;101857.47;;;20.56;73.87
15314;BME280;7757;52.626;4.746;2023-10-09T12:11:06;101892.94;;;20.80;73.28
15314;BME280;7757;52.626;4.746;2023-10-09T12:13:37;101880.66;;;20.77;73.47
15314;BME280;7757;52.626;4.746;2023-10-09T12:16:04;101901.31;;;20.96;72.94
15314;BME280;7757;52.626;4.746;2023-10-09T12:18:41;101902.91;;;20.86;72.95
15314;BME280;7757;52.626;4.746;2023-10-09T12:21:08;101899.22;;;20.98;72.72
15314;BME280;7757;52.626;4.746;2023-10-09T12:23:41;101907.97;;;21.00;72.26
15314;BME280;7757;52.626;4.746;2023-10-09T12:26:09;101880.78;;;20.82;72.37
15314;BME280;7757;52.626;4.746;2023-10-09T12:28:42;101896.34;;;20.93;73.33
15314;BME280;7757;52.626;4.746;2023-10-09T12:31:13;101894.16;;;21.02;73.20
15314;BME280;7757;52.626;4.746;2023-10-09T12:33:41;101898.69;;;21.08;72.88
15314;BME280;7757;52.626;4.746;2023-10-09T12:36:11;101863.16;;;21.03;72.69
15314;BME280;7757;52.626;4.746;2023-10-09T12:38:43;101897.75;;;21.14;72.32
15314;BME280;7757;52.626;4.746;2023-10-09T12:41:11;101887.72;;;21.14;72.67
15314;BME280;7757;52.626;4.746;2023-10-09T12:43:53;101890.53;;;21.08;72.72
15314;BME280;7757;52.626;4.746;2023-10-09T12:46:19;101867.50;;;21.10;72.42
15314;BME280;7757;52.626;4.746;2023-10-09T12:48:51;101881.53;;;21.07;72.60
15314;BME280;7757;52.626;4.746;2023-10-09T12:51:20;101840.22;;;20.99;72.12
15314;BME280;7757;52.626;4.746;2023-10-09T12:53:46;101881.53;;;21.26;72.15
15314;BME280;7757;52.626;4.746;2023-10-09T12:56:14;101873.03;;;21.34;71.78
15314;BME280;7757;52.626;4.746;2023-10-09T12:58:44;101882.38;;;21.38;71.49
15314;BME280;7757;52.626;4.746;2023-10-09T13:01:20;101878.59;;;21.39;72.20
15314;BME280;7757;52.626;4.746;2023-10-09T13:03:46;101870.38;;;21.27;71.80
15314;BME280;7757;52.626;4.746;2023-10-09T13:06:15;101852.56;;;21.31;71.64
15314;BME280;7757;52.626;4.746;2023-10-09T13:08:49;101882.88;;;21.46;71.90
15314;BME280;7757;52.626;4.746;2023-10-09T13:11:14;101889.59;;;21.44;71.36
15314;BME280;7757;52.626;4.746;2023-10-09T13:13:43;101875.66;;;21.40;72.87
15314;BME280;7757;52.626;4.746;2023-10-09T13:16:13;101881.84;;;21.59;72.08
15314;BME280;7757;52.626;4.746;2023-10-09T13:18:52;101831.47;;;21.27;71.84
15314;BME280;7757;52.626;4.746;2023-10-09T13:21:21;101863.09;;;21.39;72.78
15314;BME280;7757;52.626;4.746;2023-10-09T13:23:48;101851.63;;;21.37;72.36
15314;BME280;7757;52.626;4.746;2023-10-09T13:26:16;101871.72;;;21.36;72.74
15314;BME280;7757;52.626;4.746;2023-10-09T13:28:51;101860.38;;;21.39;72.47
15314;BME280;7757;52.626;4.746;2023-10-09T13:31:17;101842.94;;;21.29;72.11
15314;BME280;7757;52.626;4.746;2023-10-09T13:33:44;101855.50;;;21.41;71.89
15314;BME280;7757;52.626;4.746;2023-10-09T13:36:10;101830.78;;;21.31;72.51
15314;BME280;7757;52.626;4.746;2023-10-09T13:38:47;101841.66;;;21.31;71.26
15314;BME280;7757;52.626;4.746;2023-10-09T13:41:13;101868.75;;;21.38;73.11
15314;BME280;7757;52.626;4.746;2023-10-09T13:43:39;101838.72;;;21.44;71.83
15314;BME280;7757;52.626;4.746;2023-10-09T13:46:10;101840.28;;;21.52;71.65
15314;BME280;7757;52.626;4.746;2023-10-09T13:48:43;101876.03;;;21.67;71.37
15314;BME280;7757;52.626;4.746;2023-10-09T13:51:11;101877.34;;;21.64;71.42
15314;BME280;7757;52.626;4.746;2023-10-09T13:53:46;101866.19;;;21.43;72.05
15314;BME280;7757;52.626;4.746;2023-10-09T13:56:18;101776.41;;;20.83;72.60
15314;BME280;7757;52.626;4.746;2023-10-09T13:58:50;101877.16;;;21.36;73.21
15314;BME280;7757;52.626;4.746;2023-10-09T14:01:17;101886.88;;;21.44;72.65
15314;BME280;7757;52.626;4.746;2023-10-09T14:03:59;101858.00;;;21.31;72.45
15314;BME280;7757;52.626;4.746;2023-10-09T14:06:27;101891.78;;;21.53;72.19